createdAt,value
2023-01-26T00:04:40.963Z,28.00
2023-01-26T00:07:09.541Z,20.80
2023-01-26T00:09:38.196Z,24.50
2023-01-26T00:12:06.542Z,24.70
2023-01-26T00:14:50.136Z,23.50
2023-01-26T00:17:26.330Z,20.10
2023-01-26T00:19:58.986Z,22.60
2023-01-26T00:22:30.177Z,21.50
2023-01-26T00:25:01.344Z,19.70
2023-01-26T00:27:32.352Z,18.80
2023-01-26T00:30:02.072Z,20.90
2023-01-26T00:32:36.195Z,15.50
2023-01-26T00:35:05.571Z,22.10
2023-01-26T00:37:33.837Z,22.80
2023-01-26T00:40:01.827Z,20.00
2023-01-26T00:42:30.163Z,20.40
2023-01-26T00:44:58.408Z,24.20
2023-01-26T00:47:26.685Z,22.40
2023-01-26T00:49:54.822Z,20.70
2023-01-26T00:52:23.007Z,22.40
2023-01-26T00:54:51.584Z,21.10
2023-01-26T00:57:19.914Z,21.00
2023-01-26T00:59:48.085Z,20.30
2023-01-26T01:02:16.320Z,23.30
2023-01-26T01:04:44.611Z,22.50
2023-01-26T01:07:13.117Z,19.80
2023-01-26T01:09:41.089Z,20.00
2023-01-26T01:12:09.240Z,18.70
2023-01-26T01:14:38.640Z,20.30
2023-01-26T01:17:06.695Z,21.40
2023-01-26T01:19:38.253Z,19.70
2023-01-26T01:22:07.131Z,21.10
2023-01-26T01:24:35.485Z,23.60
2023-01-26T01:27:03.644Z,21.90
2023-01-26T01:29:31.752Z,21.90
2023-01-26T01:32:00.275Z,19.10
2023-01-26T01:34:29.203Z,20.60
2023-01-26T01:36:58.784Z,22.20
2023-01-26T01:39:27.456Z,23.60
2023-01-26T01:41:55.519Z,22.60
2023-01-26T01:44:25.658Z,20.90
2023-01-26T01:46:57.433Z,22.30
2023-01-26T01:49:28.529Z,20.10
2023-01-26T01:52:10.776Z,38.30
2023-01-26T01:54:44.462Z,23.50
2023-01-26T01:59:52.169Z,24.10
2023-01-26T02:02:20.711Z,22.40
2023-01-26T02:04:49.340Z,24.70
2023-01-26T02:07:17.455Z,20.20
2023-01-26T02:10:04.888Z,26.70
2023-01-26T02:12:33.113Z,23.80
2023-01-26T02:15:01.092Z,23.80
2023-01-26T02:17:30.543Z,23.20
2023-01-26T02:20:07.350Z,24.80
2023-01-26T02:23:02.255Z,28.70
2023-01-26T02:25:30.356Z,25.10
2023-01-26T02:27:58.599Z,26.70
2023-01-26T02:30:27.850Z,27.70
2023-01-26T02:32:55.915Z,26.00
2023-01-26T02:35:26.817Z,23.70
2023-01-26T02:37:55.781Z,27.30
2023-01-26T02:40:40.322Z,26.00
2023-01-26T02:43:08.609Z,24.90
2023-01-26T02:45:38.991Z,25.50
2023-01-26T02:48:09.451Z,25.30
2023-01-26T02:50:37.986Z,24.80
2023-01-26T02:53:06.770Z,26.00
2023-01-26T02:55:34.870Z,24.80
2023-01-26T02:58:04.831Z,24.80
2023-01-26T03:00:37.446Z,25.00
2023-01-26T03:03:12.186Z,26.60
2023-01-26T03:05:42.504Z,28.60
2023-01-26T03:08:10.723Z,29.50
2023-01-26T03:19:04.581Z,26.30
2023-01-26T03:21:52.426Z,30.60
2023-01-26T03:24:49.856Z,37.00
2023-01-26T03:27:26.711Z,33.80
2023-01-26T03:29:58.491Z,30.30
2023-01-26T03:32:30.795Z,30.70
2023-01-26T03:35:01.576Z,33.40
2023-01-26T03:37:36.985Z,30.10
2023-01-26T03:40:30.657Z,28.90
2023-01-26T03:43:17.733Z,29.30
2023-01-26T03:46:04.833Z,27.50
2023-01-26T03:48:52.792Z,29.30
2023-01-26T03:51:39.670Z,28.10
2023-01-26T03:54:26.868Z,25.10
2023-01-26T03:56:55.024Z,23.90
2023-01-26T03:59:38.237Z,28.20
2023-01-26T04:02:31.724Z,28.90
2023-01-26T04:05:19.543Z,27.60
2023-01-26T04:08:09.581Z,30.50
2023-01-26T04:10:37.988Z,28.20
2023-01-26T04:13:28.217Z,38.70
2023-01-26T04:16:20.930Z,35.10
2023-01-26T11:51:10.212Z,21.60
2023-01-26T11:53:52.859Z,17.70
2023-01-26T11:56:49.563Z,20.00
2023-01-26T11:59:36.980Z,20.00
2023-01-26T12:02:21.900Z,20.50
2023-01-26T12:04:52.125Z,21.40
2023-01-26T12:07:58.946Z,19.60
2023-01-26T12:10:55.033Z,20.20
2023-01-26T12:20:49.449Z,19.00
2023-01-26T12:23:30.030Z,15.20
2023-01-26T12:26:04.984Z,20.40
2023-01-26T12:28:54.974Z,20.10
2023-01-26T12:31:27.148Z,20.80
2023-01-26T12:33:56.722Z,21.40
2023-01-26T12:36:55.817Z,22.40
2023-01-26T12:40:07.975Z,20.90
2023-01-26T12:42:42.530Z,22.00
2023-01-26T12:45:18.683Z,24.60
2023-01-26T12:47:56.857Z,21.50
2023-01-26T12:50:31.120Z,21.30
2023-01-26T12:53:06.800Z,22.70
2023-01-26T12:55:44.802Z,23.80
2023-01-26T12:58:18.937Z,22.50
2023-01-26T13:01:05.074Z,22.20
2023-01-26T13:03:59.643Z,21.10
2023-01-26T13:06:28.522Z,21.20
2023-01-26T13:09:20.653Z,22.20
2023-01-26T13:11:54.385Z,21.50
2023-01-26T13:14:25.413Z,19.90
2023-01-26T13:16:55.604Z,24.30
2023-01-26T13:19:48.145Z,19.50
2023-01-26T13:22:19.817Z,22.00
2023-01-26T13:25:08.476Z,21.30
2023-01-26T13:27:54.578Z,18.80
2023-01-26T13:32:54.062Z,23.60
2023-01-26T13:35:25.955Z,20.90
2023-01-26T13:37:58.301Z,19.70
2023-01-26T13:40:43.765Z,19.90
2023-01-26T13:43:27.551Z,20.40
2023-01-26T13:46:09.173Z,20.60
2023-01-26T13:48:46.044Z,20.20
2023-01-26T13:51:32.869Z,18.50
2023-01-26T13:54:13.844Z,17.50
2023-01-26T22:06:49.895Z,22.10
2023-01-26T22:09:21.442Z,18.80
2023-01-26T22:11:51.168Z,24.60
2023-01-26T22:22:33.040Z,23.40
2023-01-26T22:25:01.599Z,21.60
2023-01-26T22:27:30.111Z,21.10
2023-01-26T22:29:58.958Z,22.60
2023-01-26T22:32:27.420Z,22.30
2023-01-26T22:34:55.574Z,23.10
2023-01-26T22:37:24.727Z,23.50
2023-01-26T22:39:52.913Z,20.50
2023-01-26T22:42:21.870Z,21.30
2023-01-26T22:44:50.492Z,22.70
2023-01-26T22:47:19.007Z,24.40
2023-01-26T22:49:47.347Z,23.60
2023-01-26T22:52:16.259Z,20.30
2023-01-26T22:54:45.194Z,23.00
2023-01-26T22:57:15.876Z,20.00
2023-01-26T22:59:44.043Z,24.60
2023-01-26T23:02:15.196Z,25.90
2023-01-26T23:04:43.591Z,22.00
2023-01-26T23:07:11.890Z,22.60
2023-01-26T23:09:39.888Z,24.90
2023-01-26T23:12:08.358Z,26.40
2023-01-26T23:14:36.380Z,23.40
2023-01-26T23:17:05.649Z,23.20
2023-01-26T23:19:34.389Z,22.20
2023-01-26T23:22:02.576Z,25.70
2023-01-26T23:24:30.800Z,30.50
2023-01-26T23:26:58.822Z,25.00
2023-01-26T23:29:27.016Z,26.30
2023-01-26T23:31:55.053Z,27.80
2023-01-26T23:34:23.137Z,29.20
2023-01-26T23:36:51.271Z,28.00
2023-01-26T23:39:21.775Z,30.40
2023-01-26T23:41:49.864Z,26.50
2023-01-26T23:44:20.152Z,32.00
2023-01-26T23:46:48.572Z,31.50
2023-01-26T23:49:16.715Z,31.30
2023-01-26T23:51:44.718Z,28.90
2023-01-26T23:54:12.937Z,28.20
2023-01-26T23:56:40.932Z,28.40
2023-01-26T23:59:08.903Z,31.60
